createdAt,value
2023-03-31T00:00:20.420Z,22.59
2023-03-31T00:03:22.465Z,22.59
2023-03-31T00:05:53.461Z,22.58
2023-03-31T00:08:21.190Z,22.58
2023-03-31T00:10:48.326Z,22.57
2023-03-31T00:13:15.605Z,22.59
2023-03-31T00:15:42.141Z,22.59
2023-03-31T00:18:08.723Z,22.58
2023-03-31T00:20:37.997Z,22.57
2023-03-31T00:23:06.525Z,22.57
2023-03-31T00:25:33.020Z,22.57
2023-03-31T00:27:59.846Z,22.57
2023-03-31T00:30:27.287Z,22.58
2023-03-31T00:32:53.789Z,22.56
2023-03-31T00:35:20.466Z,22.56
2023-03-31T00:37:47.204Z,22.56
2023-03-31T00:40:13.836Z,22.56
2023-03-31T00:42:43.780Z,22.56
2023-03-31T00:45:13.425Z,22.56
2023-03-31T00:47:50.684Z,22.56
2023-03-31T00:50:21.835Z,22.55
2023-03-31T00:52:52.093Z,22.55
2023-03-31T00:55:19.206Z,22.55
2023-03-31T00:57:46.660Z,22.55
2023-03-31T01:00:16.919Z,22.54
2023-03-31T01:02:51.569Z,22.54
2023-03-31T01:05:19.415Z,22.53
2023-03-31T01:07:46.253Z,22.54
2023-03-31T01:10:13.319Z,22.53
2023-03-31T01:12:40.620Z,22.53
2023-03-31T01:15:07.585Z,22.53
2023-03-31T01:17:34.557Z,22.53
2023-03-31T01:20:27.427Z,22.52
2023-03-31T01:23:13.775Z,22.51
2023-03-31T01:25:50.532Z,22.53
2023-03-31T01:28:32.262Z,22.51
2023-03-31T01:31:17.596Z,22.50
2023-03-31T01:33:47.116Z,22.51
2023-03-31T01:36:13.539Z,22.50
2023-03-31T01:38:43.787Z,22.50
2023-03-31T01:41:28.578Z,22.49
2023-03-31T01:43:55.083Z,22.48
2023-03-31T01:46:28.997Z,22.50
2023-03-31T01:49:18.414Z,22.50
2023-03-31T01:52:16.099Z,22.48
2023-03-31T01:54:50.869Z,22.48
2023-03-31T01:57:19.047Z,22.48
2023-03-31T01:59:51.577Z,22.48
2023-03-31T02:02:20.882Z,22.48
2023-03-31T02:04:51.672Z,22.48
2023-03-31T02:07:20.345Z,22.47
2023-03-31T02:09:48.179Z,22.49
2023-03-31T02:12:14.688Z,22.47
2023-03-31T02:14:43.621Z,22.47
2023-03-31T02:17:14.099Z,22.46
2023-03-31T02:19:41.035Z,22.47
2023-03-31T02:22:08.216Z,22.47
2023-03-31T02:24:34.780Z,22.46
2023-03-31T02:27:03.627Z,22.46
2023-03-31T02:29:31.221Z,22.46
2023-03-31T02:32:01.182Z,22.46
2023-03-31T02:34:27.749Z,22.46
2023-03-31T02:36:54.586Z,22.46
2023-03-31T02:39:34.164Z,22.44
2023-03-31T02:42:06.889Z,22.44
2023-03-31T02:44:34.262Z,22.44
2023-03-31T02:47:01.386Z,22.45
2023-03-31T02:49:27.963Z,22.44
2023-03-31T02:52:09.652Z,22.44
2023-03-31T02:54:56.208Z,22.44
2023-03-31T02:57:29.284Z,22.44
2023-03-31T03:00:07.748Z,22.43
2023-03-31T03:02:51.206Z,22.42
2023-03-31T03:05:38.310Z,22.43
2023-03-31T03:08:25.310Z,22.43
2023-03-31T03:11:08.280Z,22.42
2023-03-31T03:13:40.965Z,22.42
2023-03-31T03:16:11.323Z,22.41
2023-03-31T03:18:37.770Z,22.43
2023-03-31T03:21:04.366Z,22.42
2023-03-31T03:23:31.303Z,22.42
2023-03-31T03:25:57.899Z,22.41
2023-03-31T03:28:24.573Z,22.41
2023-03-31T03:30:51.409Z,22.41
2023-03-31T03:33:17.966Z,22.41
2023-03-31T03:35:44.584Z,22.42
2023-03-31T03:38:11.048Z,22.40
2023-03-31T03:40:37.617Z,22.40
2023-03-31T03:43:04.036Z,22.40
2023-03-31T03:45:30.618Z,22.40
2023-03-31T03:47:57.090Z,22.41
2023-03-31T03:50:23.568Z,22.40
2023-03-31T03:52:50.527Z,22.40
2023-03-31T03:55:17.838Z,22.39
2023-03-31T03:57:44.294Z,22.40
2023-03-31T04:00:12.373Z,22.40
2023-03-31T04:02:39.734Z,22.39
2023-03-31T04:05:06.470Z,22.40
2023-03-31T04:07:32.980Z,22.40
2023-03-31T04:09:59.480Z,22.39
2023-03-31T04:12:29.747Z,22.39
2023-03-31T04:14:56.423Z,22.39
2023-03-31T04:17:33.291Z,22.39
2023-03-31T04:20:07.903Z,22.38
2023-03-31T04:22:35.320Z,22.38
2023-03-31T04:25:05.045Z,22.36
2023-03-31T04:27:33.822Z,22.37
2023-03-31T04:30:00.263Z,22.36
2023-03-31T04:32:26.856Z,22.36
2023-03-31T04:35:02.620Z,22.35
2023-03-31T04:37:34.553Z,22.34
2023-03-31T04:40:08.092Z,22.34
2023-03-31T04:42:34.629Z,22.33
2023-03-31T04:45:01.076Z,22.32
2023-03-31T04:47:27.634Z,22.32
2023-03-31T04:49:54.255Z,22.32
2023-03-31T04:52:20.996Z,22.33
2023-03-31T04:54:51.420Z,22.36
2023-03-31T04:57:17.912Z,22.38
2023-03-31T04:59:44.389Z,22.40
2023-03-31T05:02:10.951Z,22.44
2023-03-31T05:04:37.679Z,22.46
2023-03-31T05:07:04.161Z,22.50
2023-03-31T05:09:30.704Z,22.51
2023-03-31T05:11:57.298Z,22.54
2023-03-31T05:14:23.809Z,22.58
2023-03-31T05:16:50.852Z,22.60
2023-03-31T05:19:18.288Z,22.66
2023-03-31T05:21:44.933Z,22.76
2023-03-31T05:24:11.835Z,22.81
2023-03-31T05:26:38.357Z,22.88
2023-03-31T05:29:04.785Z,22.92
2023-03-31T05:31:31.292Z,22.97
2023-03-31T05:33:57.776Z,22.98
2023-03-31T05:36:24.420Z,22.99
2023-03-31T05:38:52.336Z,23.02
2023-03-31T05:41:18.858Z,23.04
2023-03-31T05:43:47.849Z,23.05
2023-03-31T05:46:14.520Z,23.06
2023-03-31T05:48:41.255Z,23.07
2023-03-31T05:51:07.782Z,23.09
2023-03-31T05:53:34.974Z,23.14
2023-03-31T05:56:02.069Z,23.15
2023-03-31T05:58:29.197Z,23.18
2023-03-31T06:01:06.371Z,23.20
2023-03-31T06:03:33.840Z,23.19
2023-03-31T06:06:01.858Z,23.20
2023-03-31T06:08:29.281Z,23.19
2023-03-31T06:10:55.865Z,23.22
2023-03-31T06:13:22.794Z,23.27
2023-03-31T06:15:58.921Z,23.31
2023-03-31T06:18:26.535Z,23.34
2023-03-31T06:20:53.046Z,23.38
2023-03-31T06:23:19.600Z,23.41
2023-03-31T06:25:51.273Z,23.42
2023-03-31T06:28:19.428Z,23.44
2023-03-31T06:30:46.055Z,23.48
2023-03-31T06:33:13.256Z,23.49
2023-03-31T06:35:40.437Z,23.51
2023-03-31T06:38:07.187Z,23.53
2023-03-31T06:40:33.881Z,23.56
2023-03-31T06:43:00.954Z,23.58
2023-03-31T06:45:28.797Z,23.61
2023-03-31T06:47:55.313Z,23.61
2023-03-31T06:50:21.800Z,23.63
2023-03-31T06:52:48.406Z,23.65
2023-03-31T06:55:16.032Z,23.66
2023-03-31T06:57:42.553Z,23.67
2023-03-31T07:00:09.506Z,23.68
2023-03-31T07:02:37.158Z,23.69
2023-03-31T07:05:03.878Z,23.70
2023-03-31T07:07:33.657Z,23.72
2023-03-31T07:10:00.264Z,23.74
2023-03-31T07:12:26.702Z,23.75
2023-03-31T07:14:53.212Z,23.77
2023-03-31T07:17:19.800Z,23.79
2023-03-31T07:19:48.280Z,23.83
2023-03-31T07:22:15.739Z,23.86
2023-03-31T07:24:42.541Z,23.86
2023-03-31T07:27:09.016Z,23.88
2023-03-31T07:29:35.853Z,23.90
2023-03-31T07:32:02.354Z,23.92
2023-03-31T07:34:28.907Z,23.94
2023-03-31T07:36:56.346Z,23.95
2023-03-31T07:39:22.836Z,23.98
2023-03-31T07:41:49.305Z,24.00
2023-03-31T07:44:17.591Z,24.01
2023-03-31T07:46:44.463Z,24.03
2023-03-31T07:49:15.833Z,24.04
2023-03-31T07:51:44.721Z,24.05
2023-03-31T07:54:11.201Z,24.08
2023-03-31T07:56:37.831Z,24.10
2023-03-31T07:59:04.384Z,24.11
2023-03-31T08:01:31.125Z,24.13
2023-03-31T08:03:58.991Z,24.16
2023-03-31T08:06:26.434Z,24.17
2023-03-31T08:08:52.880Z,24.19
2023-03-31T08:11:21.352Z,24.21
2023-03-31T08:13:48.015Z,24.23
2023-03-31T08:16:14.595Z,24.25
2023-03-31T08:18:41.255Z,24.27
2023-03-31T08:21:09.708Z,24.29
2023-03-31T08:23:36.564Z,24.31
2023-03-31T08:26:15.118Z,24.32
2023-03-31T08:28:43.983Z,24.34
2023-03-31T08:31:10.720Z,24.34
2023-03-31T08:33:37.699Z,24.37
2023-03-31T08:36:05.115Z,24.37
2023-03-31T08:38:32.495Z,24.39
2023-03-31T08:40:59.934Z,24.40
2023-03-31T08:43:27.911Z,24.42
2023-03-31T08:45:55.984Z,24.46
2023-03-31T08:48:38.732Z,24.47
2023-03-31T08:51:11.825Z,24.48
2023-03-31T08:53:39.664Z,24.50
2023-03-31T08:56:07.075Z,24.57
2023-03-31T08:58:40.588Z,24.62
2023-03-31T09:01:44.172Z,24.66
2023-03-31T09:04:23.992Z,24.66
2023-03-31T09:06:53.041Z,24.61
2023-03-31T09:09:32.998Z,24.58
2023-03-31T09:12:00.877Z,24.55
2023-03-31T09:14:44.253Z,24.55
2023-03-31T09:17:16.797Z,24.46
2023-03-31T09:19:44.576Z,24.36
2023-03-31T09:22:22.660Z,24.31
2023-03-31T09:25:03.904Z,24.25
2023-03-31T09:27:31.915Z,24.25
2023-03-31T09:29:58.886Z,24.25
2023-03-31T09:32:26.343Z,24.26
2023-03-31T09:34:53.790Z,24.31
2023-03-31T09:37:20.285Z,24.36
2023-03-31T09:39:46.729Z,24.40
2023-03-31T09:42:13.621Z,24.43
2023-03-31T09:44:40.870Z,24.45
2023-03-31T09:47:11.521Z,24.46
2023-03-31T09:49:38.256Z,24.46
2023-03-31T09:52:15.348Z,24.46
2023-03-31T09:54:44.306Z,24.46
2023-03-31T09:57:15.333Z,24.45
2023-03-31T09:59:43.972Z,24.45
2023-03-31T10:02:23.403Z,24.44
2023-03-31T10:04:50.025Z,24.42
2023-03-31T10:07:21.064Z,24.40
2023-03-31T10:09:47.720Z,24.40
2023-03-31T10:12:20.108Z,24.38
2023-03-31T10:14:48.789Z,24.38
2023-03-31T10:17:16.709Z,24.36
2023-03-31T10:19:51.116Z,24.34
2023-03-31T10:22:20.659Z,24.33
2023-03-31T10:24:47.506Z,24.32
2023-03-31T10:27:19.529Z,24.32
2023-03-31T10:29:46.501Z,24.31
2023-03-31T10:32:12.883Z,24.30
2023-03-31T10:34:40.639Z,24.29
2023-03-31T10:37:07.182Z,24.28
2023-03-31T10:39:33.851Z,24.27
2023-03-31T10:42:00.878Z,24.26
2023-03-31T10:44:31.968Z,24.26
2023-03-31T10:47:04.530Z,24.25
2023-03-31T10:49:31.593Z,24.26
2023-03-31T10:51:59.174Z,24.27
2023-03-31T10:54:26.036Z,24.24
2023-03-31T10:56:54.246Z,24.24
2023-03-31T10:59:27.085Z,24.23
2023-03-31T11:01:59.764Z,24.22
2023-03-31T11:04:56.496Z,24.21
2023-03-31T11:07:41.429Z,24.20
2023-03-31T11:10:17.050Z,24.21
2023-03-31T11:12:44.777Z,24.19
2023-03-31T11:15:25.935Z,24.19
2023-03-31T11:18:14.740Z,24.18
2023-03-31T11:20:59.972Z,24.17
2023-03-31T11:23:32.400Z,24.16
2023-03-31T11:26:02.173Z,24.16
2023-03-31T11:28:34.052Z,24.14
2023-03-31T11:31:10.327Z,24.13
2023-03-31T11:33:42.839Z,24.12
2023-03-31T11:36:16.989Z,24.12
2023-03-31T11:38:44.656Z,24.10
2023-03-31T11:41:13.413Z,24.10
2023-03-31T11:43:43.001Z,24.09
2023-03-31T11:46:17.748Z,24.08
2023-03-31T11:48:52.003Z,24.08
2023-03-31T11:51:23.757Z,24.07
2023-03-31T11:53:50.273Z,24.08
2023-03-31T11:56:16.737Z,24.06
2023-03-31T11:58:51.675Z,24.06
2023-03-31T12:01:21.202Z,24.06
2023-03-31T12:03:51.442Z,24.06
2023-03-31T12:06:19.777Z,24.04
2023-03-31T12:08:47.773Z,24.04
2023-03-31T12:11:32.214Z,24.04
2023-03-31T12:14:04.491Z,24.04
2023-03-31T12:16:45.985Z,24.03
2023-03-31T12:19:19.284Z,24.01
2023-03-31T12:21:53.329Z,23.99
2023-03-31T12:24:19.800Z,23.98
2023-03-31T12:27:04.845Z,24.00
2023-03-31T12:29:33.404Z,24.05
2023-03-31T12:32:01.364Z,24.09
2023-03-31T12:34:27.916Z,24.10
2023-03-31T12:36:55.514Z,24.05
2023-03-31T12:39:44.893Z,24.00
2023-03-31T12:42:11.463Z,23.94
2023-03-31T12:44:51.514Z,23.89
2023-03-31T12:47:18.692Z,23.88
2023-03-31T12:49:51.959Z,23.82
2023-03-31T12:52:21.661Z,23.76
2023-03-31T12:55:09.492Z,23.71
2023-03-31T12:57:36.514Z,23.67
2023-03-31T13:00:07.864Z,23.66
2023-03-31T13:02:34.461Z,23.65
2023-03-31T13:05:26.006Z,23.67
2023-03-31T13:07:52.867Z,23.67
2023-03-31T13:10:23.644Z,23.65
2023-03-31T13:13:07.191Z,23.66
2023-03-31T13:15:33.696Z,23.69
2023-03-31T13:18:04.246Z,23.71
2023-03-31T13:20:32.477Z,23.71
2023-03-31T13:23:03.579Z,23.73
2023-03-31T13:25:30.417Z,23.73
2023-03-31T13:27:58.057Z,23.75
2023-03-31T13:30:36.847Z,23.76
2023-03-31T13:33:10.752Z,23.77
2023-03-31T13:35:38.142Z,23.77
2023-03-31T13:38:23.442Z,23.78
2023-03-31T13:40:52.260Z,23.78
2023-03-31T13:43:41.187Z,23.79
2023-03-31T13:46:13.564Z,23.80
2023-03-31T13:48:44.483Z,23.79
2023-03-31T13:51:25.609Z,23.80
2023-03-31T13:54:12.527Z,23.80
2023-03-31T13:56:48.738Z,23.81
2023-03-31T13:59:20.875Z,23.80
2023-03-31T14:02:03.533Z,23.82
2023-03-31T14:04:40.908Z,23.83
2023-03-31T14:07:12.855Z,23.83
2023-03-31T14:09:52.407Z,23.84
2023-03-31T14:12:23.107Z,23.85
2023-03-31T14:14:52.642Z,23.85
2023-03-31T14:17:19.069Z,23.85
2023-03-31T14:19:45.662Z,23.87
2023-03-31T14:22:18.448Z,23.89
2023-03-31T14:24:48.879Z,23.91
2023-03-31T14:27:18.404Z,23.91
2023-03-31T14:29:51.564Z,23.91
2023-03-31T14:32:39.652Z,23.90
2023-03-31T14:35:13.800Z,23.89
2023-03-31T14:37:40.647Z,23.88
2023-03-31T14:40:10.663Z,23.86
2023-03-31T14:42:40.747Z,23.84
2023-03-31T14:45:12.320Z,23.84
2023-03-31T14:47:38.942Z,23.83
2023-03-31T14:50:11.976Z,23.82
2023-03-31T14:52:38.998Z,23.80
2023-03-31T14:55:05.913Z,23.79
2023-03-31T14:57:33.768Z,23.78
2023-03-31T15:00:00.734Z,23.76
2023-03-31T15:02:30.835Z,23.76
2023-03-31T15:04:58.002Z,23.75
2023-03-31T15:07:24.503Z,23.75
2023-03-31T15:09:51.343Z,23.74
2023-03-31T15:12:18.680Z,23.75
2023-03-31T15:14:46.840Z,23.73
2023-03-31T15:17:26.438Z,23.73
2023-03-31T15:19:53.818Z,23.73
2023-03-31T15:22:20.258Z,23.73
2023-03-31T15:24:47.018Z,23.73
2023-03-31T15:27:20.510Z,23.73
2023-03-31T15:29:50.671Z,23.75
2023-03-31T15:32:18.569Z,23.74
2023-03-31T15:34:46.567Z,23.74
2023-03-31T15:37:14.431Z,23.75
2023-03-31T15:39:43.893Z,23.75
2023-03-31T15:42:10.348Z,23.75
2023-03-31T15:44:38.570Z,23.76
2023-03-31T15:47:11.742Z,23.76
2023-03-31T15:49:38.215Z,23.75
2023-03-31T15:52:05.097Z,23.76
2023-03-31T15:54:36.123Z,23.76
2023-03-31T15:57:03.683Z,23.76
2023-03-31T15:59:41.763Z,23.75
2023-03-31T16:02:19.483Z,23.74
2023-03-31T16:04:50.430Z,23.74
2023-03-31T16:07:21.464Z,23.72
2023-03-31T16:09:54.231Z,23.71
2023-03-31T16:12:25.648Z,23.71
2023-03-31T16:15:00.403Z,23.72
2023-03-31T16:17:31.457Z,23.73
2023-03-31T16:20:04.905Z,23.74
2023-03-31T16:22:33.326Z,23.75
2023-03-31T16:24:59.810Z,23.74
2023-03-31T16:27:26.357Z,23.75
2023-03-31T16:30:04.701Z,23.76
2023-03-31T16:32:31.265Z,23.75
2023-03-31T16:34:58.847Z,23.76
2023-03-31T16:37:25.480Z,23.76
2023-03-31T16:39:52.043Z,23.75
2023-03-31T16:42:18.797Z,23.76
2023-03-31T16:44:52.861Z,23.75
2023-03-31T16:47:35.086Z,23.75
2023-03-31T16:50:07.014Z,23.76
2023-03-31T16:52:33.668Z,23.76
2023-03-31T16:55:00.360Z,23.76
2023-03-31T16:57:27.015Z,23.74
2023-03-31T16:59:53.614Z,23.71
2023-03-31T17:02:21.452Z,23.70
2023-03-31T17:04:48.481Z,23.69
2023-03-31T17:07:15.011Z,23.69
2023-03-31T17:09:41.453Z,23.66
2023-03-31T17:12:07.951Z,23.68
2023-03-31T17:14:34.411Z,23.66
2023-03-31T17:17:01.231Z,23.66
2023-03-31T17:19:27.730Z,23.65
2023-03-31T17:21:55.113Z,23.64
2023-03-31T17:24:22.295Z,23.63
2023-03-31T17:26:48.825Z,23.62
2023-03-31T17:29:16.666Z,23.61
2023-03-31T17:31:43.615Z,23.61
2023-03-31T17:34:10.731Z,23.60
2023-03-31T17:36:37.333Z,23.60
2023-03-31T17:39:05.083Z,23.60
2023-03-31T17:41:31.798Z,23.60
2023-03-31T17:43:58.757Z,23.59
2023-03-31T17:46:25.368Z,23.58
2023-03-31T17:48:53.492Z,23.58
2023-03-31T17:51:20.256Z,23.58
2023-03-31T17:53:47.136Z,23.57
2023-03-31T17:56:14.223Z,23.57
2023-03-31T17:58:41.726Z,23.55
2023-03-31T18:01:08.882Z,23.55
2023-03-31T18:03:35.535Z,23.55
2023-03-31T18:06:11.502Z,23.55
2023-03-31T18:08:38.639Z,23.55
2023-03-31T18:11:05.502Z,23.54
2023-03-31T18:13:32.331Z,23.54
2023-03-31T18:15:58.887Z,23.53
2023-03-31T18:18:28.097Z,23.53
2023-03-31T18:20:55.290Z,23.53
2023-03-31T18:23:22.162Z,23.52
2023-03-31T18:25:48.643Z,23.51
2023-03-31T18:28:16.171Z,23.51
2023-03-31T18:30:43.509Z,23.51
2023-03-31T18:33:10.370Z,23.49
2023-03-31T18:35:37.971Z,23.48
2023-03-31T18:38:04.817Z,23.48
2023-03-31T18:40:31.318Z,23.47
2023-03-31T18:42:58.961Z,23.48
2023-03-31T18:45:27.962Z,23.49
2023-03-31T18:47:54.875Z,23.49
2023-03-31T18:50:23.194Z,23.48
2023-03-31T18:52:51.765Z,23.48
2023-03-31T18:55:18.676Z,23.49
2023-03-31T18:57:45.195Z,23.48
2023-03-31T19:00:12.013Z,23.49
2023-03-31T19:02:38.657Z,23.49
2023-03-31T19:05:05.796Z,23.49
2023-03-31T19:07:32.269Z,23.50
2023-03-31T19:09:58.751Z,23.49
2023-03-31T19:12:25.703Z,23.49
2023-03-31T19:14:52.465Z,23.49
2023-03-31T19:17:19.780Z,23.48
2023-03-31T19:19:46.299Z,23.49
2023-03-31T19:22:12.874Z,23.48
2023-03-31T19:24:40.493Z,23.48
2023-03-31T19:27:07.174Z,23.49
2023-03-31T19:29:35.267Z,23.48
2023-03-31T19:32:02.455Z,23.48
2023-03-31T19:34:28.951Z,23.48
2023-03-31T19:36:55.467Z,23.47
2023-03-31T19:39:21.974Z,23.48
2023-03-31T19:41:48.500Z,23.46
2023-03-31T19:44:15.109Z,23.46
2023-03-31T19:46:41.779Z,23.44
2023-03-31T19:49:09.419Z,23.43
2023-03-31T19:51:36.050Z,23.42
2023-03-31T19:54:02.564Z,23.43
2023-03-31T19:56:31.373Z,23.43
2023-03-31T19:58:59.203Z,23.42
2023-03-31T20:01:27.199Z,23.42
2023-03-31T20:03:54.605Z,23.41
2023-03-31T20:06:25.084Z,23.40
2023-03-31T20:08:55.913Z,23.39
2023-03-31T20:11:22.682Z,23.39
2023-03-31T20:13:49.221Z,23.39
2023-03-31T20:16:18.437Z,23.39
2023-03-31T20:18:49.032Z,23.38
2023-03-31T20:21:16.778Z,23.38
2023-03-31T20:23:43.842Z,23.38
2023-03-31T20:26:11.612Z,23.36
2023-03-31T20:28:38.228Z,23.37
2023-03-31T20:31:31.423Z,23.36
2023-03-31T20:33:58.175Z,23.35
2023-03-31T20:36:32.161Z,23.36
2023-03-31T20:38:59.485Z,23.35
2023-03-31T20:41:26.826Z,23.34
2023-03-31T20:43:53.809Z,23.35
2023-03-31T20:46:20.399Z,23.33
2023-03-31T20:48:48.042Z,23.34
2023-03-31T20:51:15.434Z,23.33
2023-03-31T20:53:42.703Z,23.32
2023-03-31T20:56:09.663Z,23.32
2023-03-31T20:58:36.658Z,23.30
2023-03-31T21:01:03.552Z,23.30
2023-03-31T21:03:30.091Z,23.30
2023-03-31T21:05:56.555Z,23.30
2023-03-31T21:08:23.060Z,23.29
2023-03-31T21:10:49.596Z,23.29
2023-03-31T21:13:16.490Z,23.29
2023-03-31T21:15:46.873Z,23.29
2023-03-31T21:18:16.702Z,23.28
2023-03-31T21:20:50.542Z,23.27
2023-03-31T21:23:17.720Z,23.27
2023-03-31T21:25:52.625Z,23.27
2023-03-31T21:28:20.516Z,23.26
2023-03-31T21:30:54.324Z,23.26
2023-03-31T21:33:21.625Z,23.25
2023-03-31T21:35:48.130Z,23.25
2023-03-31T21:38:15.077Z,23.25
2023-03-31T21:40:41.757Z,23.24
2023-03-31T21:43:09.026Z,23.24
2023-03-31T21:45:36.682Z,23.24
2023-03-31T21:48:04.068Z,23.24
2023-03-31T21:50:30.517Z,23.23
2023-03-31T21:52:57.295Z,23.22
2023-03-31T21:55:23.761Z,23.22
2023-03-31T21:57:52.174Z,23.22
2023-03-31T22:00:19.045Z,23.22
2023-03-31T22:02:46.072Z,23.22
2023-03-31T22:05:12.611Z,23.21
2023-03-31T22:07:39.417Z,23.20
2023-03-31T22:10:06.080Z,23.20
2023-03-31T22:12:32.646Z,23.20
2023-03-31T22:14:59.099Z,23.20
2023-03-31T22:17:25.874Z,23.19
2023-03-31T22:19:52.344Z,23.19
2023-03-31T22:22:19.057Z,23.19
2023-03-31T22:24:45.503Z,23.18
2023-03-31T22:27:12.241Z,23.19
2023-03-31T22:29:38.711Z,23.18
2023-03-31T22:32:05.544Z,23.17
2023-03-31T22:34:32.095Z,23.15
2023-03-31T22:36:58.655Z,23.15
2023-03-31T22:39:25.345Z,23.14
2023-03-31T22:41:51.857Z,23.14
2023-03-31T22:44:18.420Z,23.12
2023-03-31T22:46:47.948Z,23.12
2023-03-31T22:49:14.529Z,23.12
2023-03-31T22:51:41.704Z,23.12
2023-03-31T22:54:09.811Z,23.09
2023-03-31T22:56:36.481Z,23.10
2023-03-31T22:59:02.962Z,23.10
2023-03-31T23:01:29.722Z,23.09
2023-03-31T23:03:56.531Z,23.09
2023-03-31T23:06:23.204Z,23.06
2023-03-31T23:08:53.488Z,23.07
2023-03-31T23:11:20.113Z,23.06
2023-03-31T23:13:46.684Z,23.05
2023-03-31T23:16:16.672Z,23.05
2023-03-31T23:18:47.466Z,23.04
2023-03-31T23:21:14.918Z,23.03
2023-03-31T23:23:42.274Z,23.02
2023-03-31T23:26:09.054Z,23.02
2023-03-31T23:28:36.344Z,23.02
2023-03-31T23:31:03.066Z,23.02
2023-03-31T23:33:29.584Z,23.01
2023-03-31T23:36:03.213Z,23.01
2023-03-31T23:38:30.235Z,22.99
2023-03-31T23:40:57.064Z,23.00
2023-03-31T23:43:23.682Z,23.00
2023-03-31T23:45:50.405Z,22.99
2023-03-31T23:48:16.909Z,22.97
2023-03-31T23:50:43.485Z,22.98
2023-03-31T23:53:10.098Z,22.97
2023-03-31T23:55:36.741Z,22.97
2023-03-31T23:58:04.124Z,22.96
